Flight Track Log - Related Links

Times and Time Zones

All times are in EST time to prevent confusion due to time zone crossing. See the DAL1945 flight status page for this flight to view local times or setup timezone preferences in your user account.

Time Position Orientation Groundspeed Altitude Reporting Facility
EST Latitude Longitude Course Direction KTS MPH feet Rate Location/Type
Wed 02:57:55 PM 38.8167 -77.0333 303° West 154 177 1,800  Level Potomac TRACON
Wed 02:58:56 PM 38.7500 -77.0333 180° South 247 284 3,900 2,826 Climbing Potomac TRACON
Wed 02:59:56 PM 38.7333 -77.1167 256° West 251 289 7,500 3,250 Climbing Potomac TRACON
Wed 03:00:00 PM 39.0697 -77.4108 322° Northwest  Level Estimated
Wed 03:00:56 PM 38.7667 -77.2000 297° West 305 351 10,400  Level Potomac TRACON
Wed 03:01:00 PM 39.1553 -77.4494 341° North  Level FlightAware Approximate
Wed 03:01:56 PM 38.8500 -77.2667 328° Northwest 353 406 11,800  Level Potomac TRACON
Wed 03:02:00 PM 39.2089 -77.5439 290° West  Level Estimated
Wed 03:03:00 PM 39.2623 -77.6384 303° West  Level Estimated
Wed 03:03:46 PM 38.9875 -77.3969 324° Northwest 380 437 15,900  Level Washington Center
Wed 03:04:47 PM 39.1053 -77.4667 335° Northwest 380 437 17,000 706 Climbing Washington Center
Wed 03:05:45 PM 39.2128 -77.5069 344° North 392 451 17,300 1,119 Climbing Washington Center
Wed 03:06:45 PM 39.3206 -77.5472 344° North 392 451 19,200 1,731 Climbing Washington Center
Wed 03:11:35 PM 39.5910 -78.0380 344° North 396 456 27,400 1,495 Climbing FlightAware ADS-B
Wed 03:12:14 PM 39.6140 -78.1110 292° West 396 456 27,400  Level FlightAware ADS-B
Wed 03:13:12 PM 39.6480 -78.2200 292° West 396 456 27,400  Level FlightAware ADS-B
Wed 03:13:49 PM 39.6690 -78.2890 292° West 396 456 27,400  Level FlightAware ADS-B
Wed 03:14:25 PM 39.6900 -78.3570 292° West 396 456 27,400  Level FlightAware ADS-B
Wed 03:15:25 PM 39.7250 -78.4690 292° West 396 456 27,400 2,968 Level FlightAware ADS-B
Wed 03:15:58 PM 39.8211 -78.6467 292° West 398 458 32,000 2,905 Climbing Cleveland Center
Wed 03:17:00 PM 39.8733 -78.7719 299° West 396 456 32,000  Level Cleveland Center
Wed 03:18:02 PM 39.9239 -78.8978 298° West 395 455 32,000  Level Cleveland Center
Wed 03:19:04 PM 39.9725 -79.0158 298° West 401 461 32,000  Level Cleveland Center
Wed 03:20:06 PM 40.0344 -79.1694 298° West 397 457 32,000  Level Cleveland Center
Wed 03:21:08 PM 40.0894 -79.3044 298° West 394 453 32,000  Level Cleveland Center
Wed 03:22:10 PM 40.1372 -79.4203 298° West 396 456 32,000  Level Cleveland Center
Wed 03:23:13 PM 40.1881 -79.5486 297° West 399 459 32,000  Level Cleveland Center
Wed 03:24:15 PM 40.2389 -79.6761 298° West 397 457 32,000  Level Cleveland Center
Wed 03:25:17 PM 40.2997 -79.8283 298° West 395 455 32,000  Level Cleveland Center
Wed 03:26:19 PM 40.3508 -79.9572 298° West 399 459 32,000  Level Cleveland Center
Wed 03:27:21 PM 40.4067 -80.0972 298° West 402 463 32,000  Level Cleveland Center
Wed 03:28:23 PM 40.4569 -80.2275 297° West 402 463 32,000  Level Cleveland Center
Wed 03:29:25 PM 40.5106 -80.3625 298° West 402 463 32,000  Level Cleveland Center
Wed 03:30:27 PM 40.5608 -80.4931 297° West 402 463 32,000  Level Cleveland Center
Wed 03:31:29 PM 40.6206 -80.6378 299° West 404 465 32,000 -871 Level Cleveland Center
Wed 03:32:31 PM 40.6767 -80.7444 305° West 403 464 30,200 -960 Descending Cleveland Center
Wed 03:33:34 PM 40.7381 -80.8719 302° West 410 472 30,000 -96 Descending Cleveland Center
Wed 03:34:36 PM 40.8147 -81.0272 303° West 420 483 30,000 -145 Level Cleveland Center
Wed 03:35:38 PM 40.8747 -81.1508 303° West 418 481 29,700 -2,274 Descending Cleveland Center
Wed 03:36:40 PM 40.9381 -81.2825 303° West 420 483 25,300 -2,806 Descending Cleveland Center
Wed 03:37:42 PM 41.0025 -81.4172 302° West 426 490 23,900 -629 Descending Cleveland Center
Wed 03:38:44 PM 41.0669 -81.5492 303° West 422 486 24,000 48 Climbing Cleveland Center
Wed 03:39:46 PM 41.1331 -81.6900 302° West 384 442 24,000  Level Cleveland Center
Wed 03:40:48 PM 41.1922 -81.8144 302° West 394 453 24,000  Level Cleveland Center
Wed 03:41:50 PM 41.2522 -81.9392 303° West 400 460 24,000  Level Cleveland Center
Wed 03:42:52 PM 41.3106 -82.0619 302° West 396 456 24,000 -96 Level Cleveland Center
Wed 03:43:55 PM 41.3742 -82.1906 303° West 387 445 23,800 -960 Descending Cleveland Center
Wed 03:44:57 PM 41.4444 -82.3053 309° West 393 452 22,000 -2,371 Descending Cleveland Center
Wed 03:45:59 PM 41.5131 -82.4194 309° West 391 450 18,900 -2,813 Descending Cleveland Center
Wed 03:46:01 PM 41.5119 -82.4203 209° Southwest 390 449 19,000 -3,200 Climbing Cleveland Center
Wed 03:46:44 PM 41.5700 -82.5167 309° West 386 444 16,500 -3,100 Descending Cleveland Center
Wed 03:47:01 PM 41.5800 -82.5322 311° West 385 443 15,900 -3,246 Descending Cleveland Center
Wed 03:47:45 PM 41.6336 -82.6225 308° West 367 422 13,200 -2,806 Descending Cleveland Center
Wed 03:48:03 PM 41.6442 -82.6389 311° West 369 425 13,000 -1,082 Descending Cleveland Center
Wed 03:48:46 PM 41.6914 -82.7219 307° West 330 380 12,100 -968 Descending Cleveland Center
Wed 03:49:05 PM 41.6981 -82.7325 310° West 330 380 12,000 -90 Descending Cleveland Center
Wed 03:49:53 PM 41.7497 -82.8108 311° West 264 304 12,000  Level Cleveland Center
Wed 03:50:07 PM 41.7608 -82.8217 324° Northwest 276 318 12,000  Level Cleveland Center
Wed 03:50:48 PM 41.8000 -82.8678 319° Northwest 271 312 12,000  Level Cleveland Center
Wed 03:51:09 PM 41.8192 -82.8889 321° Northwest 277 319 12,000  Level Cleveland Center
Wed 03:51:49 PM 41.8614 -82.9431 316° Northwest 280 322 12,000  Level Cleveland Center
Wed 03:52:11 PM 41.8775 -82.9594 323° Northwest 281 323 12,000  Level Cleveland Center
Wed 03:52:56 PM 41.9247 -83.0189 317° Northwest 281 323 12,000  Level Cleveland Center
Wed 03:53:13 PM 41.9347 -83.0289 323° Northwest 278 320 12,000  Level Cleveland Center
Wed 03:53:51 PM 41.9786 -83.0825 318° Northwest 279 321 12,000  Level Cleveland Center
Wed 03:54:15 PM 41.9922 -83.0986 319° Northwest 279 321 12,000  Level Cleveland Center
Wed 03:54:51 PM 42.0342 -83.1517 317° Northwest 275 316 12,000  Level Cleveland Center
Wed 03:55:18 PM 42.0572 -83.1758 322° Northwest 256 295 12,000 -176 Level Cleveland Center
Wed 03:55:59 PM 42.0903 -83.2103 322° Northwest 215 247 11,800 -387 Descending Cleveland Center
Wed 03:56:20 PM 42.1003 -83.2136 346° North 221 254 11,600 -1,418 Descending Cleveland Center
Wed 03:56:54 PM 42.1506 -83.2186 356° North 241 277 10,500 -1,548 Descending Cleveland Center
Wed 03:57:22 PM 42.1750 -83.2100 15° North 253 291 10,000 -1,082 Descending Cleveland Center
Wed 03:57:55 PM 42.2158 -83.1853 24° Northeast 259 298 9,400 -968 Descending Cleveland Center
Wed 03:58:24 PM 42.2378 -83.1669 32° Northeast 257 296 9,000 -1,082 Descending Cleveland Center
Wed 03:58:56 PM 42.2758 -83.1400 28° Northeast 246 283 8,300 -1,065 Descending Cleveland Center
Wed 03:59:26 PM 42.2956 -83.1208 36° Northeast 247 284 7,900 -1,574 Descending Cleveland Center
Wed 03:59:57 PM 42.3383 -83.0892 29° Northeast 243 280 6,700 -1,548 Descending Cleveland Center
Wed 04:00:28 PM 42.3661 -83.0672 30° Northeast 244 281 6,300 -677 Descending Cleveland Center
Wed 04:00:59 PM 42.3983 -83.0439 28° Northeast 250 288 6,000 -290 Descending Cleveland Center
Wed 04:01:30 PM 42.4247 -83.0233 30° Northeast 244 281 6,000  Level Cleveland Center
Wed 04:02:00 PM 42.4539 -83.0033 27° Northeast 219 252 6,000  Level Cleveland Center
Wed 04:02:32 PM 42.4769 -82.9844 31° Northeast 226 260 6,000  Level Cleveland Center
Wed 04:03:01 PM 42.5025 -82.9958 342° North 189 217 6,000  Level Cleveland Center
Wed 04:03:34 PM 42.5133 -83.0192 302° West 180 207 6,000  Level Cleveland Center
Wed 04:04:02 PM 42.5297 -83.0533 303° West 163 188 6,000  Level Cleveland Center
Wed 04:04:36 PM 42.5347 -83.0728 289° West 165 190 6,000  Level Cleveland Center
Wed 04:05:03 PM 42.5156 -83.1022 229° Southwest 161 185 6,000  Level Cleveland Center
Wed 04:05:38 PM 42.4983 -83.1247 224° Southwest 161 185 6,000  Level Cleveland Center
Wed 04:06:05 PM 42.4783 -83.1228 176° South 197 227 6,000  Level Cleveland Center
Wed 04:06:40 PM 42.4636 -83.0828 117° Southeast 202 232 6,000  Level Cleveland Center
Wed 04:07:06 PM 42.4669 -83.0503 82° East 221 254 6,000  Level Cleveland Center
Wed 04:07:42 PM 42.4889 -83.0139 51° Northeast 225 259 6,000  Level Cleveland Center
Wed 04:08:13 PM 42.5169 -83.0261 342° North 163 188 6,000  Level Cleveland Center
Wed 04:08:45 PM 42.5181 -83.0478 274° West 172 198 6,000  Level Cleveland Center
Wed 04:09:14 PM 42.5167 -83.0856 267° West 158 182 6,000  Level Cleveland Center
Wed 04:09:47 PM 42.5125 -83.1069 255° West 160 184 6,000  Level Cleveland Center
Wed 04:10:15 PM 42.4903 -83.1328 221° Southwest 163 188 6,000  Level Cleveland Center
Wed 04:10:49 PM 42.4756 -83.1433 208° Southwest 164 189 6,000 -194 Level Cleveland Center
Wed 04:11:17 PM 42.4500 -83.1642 211° Southwest 164 189 5,800 -581 Descending Cleveland Center
Wed 04:11:51 PM 42.4283 -83.1781 205° Southwest 164 189 5,400 -787 Descending Cleveland Center
Wed 04:12:18 PM 42.4125 -83.1900 209° Southwest 141 162 5,000 -871 Descending Cleveland Center
Wed 04:12:53 PM 42.3933 -83.2036 208° Southwest 150 173 4,500 -787 Descending Cleveland Center
Wed 04:13:19 PM 42.3792 -83.2164 214° Southwest 136 157 4,200 -677 Descending Cleveland Center
Wed 04:13:55 PM 42.3617 -83.2272 205° Southwest 136 157 3,800 -774 Descending Cleveland Center
Wed 04:14:21 PM 42.3458 -83.2400 211° Southwest 140 161 3,400 -677 Descending Cleveland Center
Wed 04:14:57 PM 42.3283 -83.2514 206° Southwest 135 155 3,100 -689 Descending Cleveland Center
Wed 04:15:22 PM 42.3103 -83.2661 211° Southwest 138 159 2,700 -677 Descending Cleveland Center
Wed 04:15:59 PM 42.2953 -83.2764 207° Southwest 136 157 2,400 -689 Descending Cleveland Center
Wed 04:16:23 PM 42.2792 -83.2900 212° Southwest 125 144 2,000 -677 Descending Cleveland Center
Wed 04:17:01 PM 42.2650 -83.2997 207° Southwest 130 150 1,700 -689 Descending Cleveland Center
Wed 04:17:24 PM 42.2481 -83.3139 212° Southwest 124 143 1,300 -677 Descending Cleveland Center
Wed 04:18:03 PM 42.2347 -83.3222 205° Southwest 125 144 1,000 -356 Descending Cleveland Center
Wed 04:19:05 PM 42.1989 -83.3478 208° Southwest 125 144 700 -290 Descending Cleveland Center

Login

Don't have an account? Register now (free) for customized features, flight alerts, and more!